Terminal Aerodrome Forecast
Issued by NWS

Home | Current Version | Previous Version | Text Only | Print | Product List | Glossary On
Versions: 1 2 3 4 5 6 7 8 9 10 11 12 13 14 15 16 17 18 19
000
FTUS43 KSGF 060500
TAFBBG
TAF
KBBG 060520Z 0606/0706 00000KT P6SM SCT040 WS017/22035KT
     FM060800 00000KT 4SM BR SCT250 WS017/22035KT
     FM061500 19010G17KT P6SM SCT050
     FM070000 19005KT P6SM SCT050 BKN120=

USA.gov is the U.S. government's official web portal to all federal, state and local government web resources and services.